createdAt,value
2024-05-09T00:00:47.476Z,99582.53
2024-05-09T00:05:50.479Z,99585.84
2024-05-09T00:10:53.702Z,99602.94
2024-05-09T00:15:56.410Z,99600.16
2024-05-09T00:20:59.546Z,99594.78
2024-05-09T00:26:02.475Z,99605.84
2024-05-09T00:31:05.392Z,99614.47
2024-05-09T00:36:08.177Z,99617.88
2024-05-09T00:41:11.325Z,99618.63
2024-05-09T00:46:14.230Z,99630.63
2024-05-09T00:51:17.036Z,99633.91
2024-05-09T00:56:20.130Z,99630.34
2024-05-09T01:01:23.560Z,99629.63
2024-05-09T01:06:26.233Z,99629.63
2024-05-09T01:11:39.480Z,99639.22
2024-05-09T01:16:42.664Z,99643.53
2024-05-09T01:21:45.393Z,99647.84
2024-05-09T01:26:48.061Z,99646.28
2024-05-09T01:31:50.972Z,99648.03
2024-05-09T01:36:53.883Z,99655.81
2024-05-09T01:41:56.582Z,99657.66
2024-05-09T01:46:59.536Z,99650.75
2024-05-09T01:52:02.317Z,99653.25
2024-05-09T01:57:05.430Z,99657.66
2024-05-09T02:02:08.254Z,99660.94
2024-05-09T02:07:11.010Z,99662.00
2024-05-09T02:12:13.660Z,99670.53
2024-05-09T02:17:16.704Z,99673.19
2024-05-09T02:22:19.476Z,99678.34
2024-05-09T02:27:22.199Z,99687.84
2024-05-09T02:32:25.108Z,99683.59
2024-05-09T02:37:28.084Z,99678.63
2024-05-09T02:42:30.794Z,99683.88
2024-05-09T02:47:33.576Z,99682.91
2024-05-09T02:52:36.342Z,99683.88
2024-05-09T02:57:38.999Z,99708.03
2024-05-09T03:02:44.218Z,99704.78
2024-05-09T03:07:47.109Z,99708.44
2024-05-09T03:12:49.775Z,99701.50
2024-05-09T03:17:52.542Z,99707.50
2024-05-09T03:22:56.930Z,99713.34
2024-05-09T03:27:59.946Z,99697.50
2024-05-09T03:33:02.973Z,99703.56
2024-05-09T03:38:05.846Z,99704.25
2024-05-09T03:43:08.539Z,99702.34
2024-05-09T03:48:11.143Z,99710.84
2024-05-09T03:53:14.682Z,99693.22
2024-05-09T03:58:17.448Z,99684.97
2024-05-09T04:03:20.061Z,99679.31
2024-05-09T04:08:22.953Z,99682.78
2024-05-09T04:13:25.558Z,99673.78
2024-05-09T04:18:28.017Z,99680.38
2024-05-09T04:23:30.912Z,99680.19
2024-05-09T04:28:33.699Z,99698.97
2024-05-09T04:33:36.631Z,99697.63
2024-05-09T04:38:39.753Z,99705.00
2024-05-09T04:43:42.398Z,99704.09
2024-05-09T04:48:45.315Z,99705.69
2024-05-09T04:53:48.540Z,99701.41
2024-05-09T04:58:51.376Z,99697.59
2024-05-09T05:03:56.146Z,99682.03
2024-05-09T05:08:58.861Z,99683.53
2024-05-09T05:14:01.522Z,99687.28
2024-05-09T05:19:05.317Z,99683.94
2024-05-09T05:24:09.950Z,99684.41
2024-05-09T05:29:12.745Z,99699.06
2024-05-09T05:34:15.415Z,99716.06
2024-05-09T05:39:18.077Z,99706.25
2024-05-09T05:44:20.908Z,99692.28
2024-05-09T05:49:23.751Z,99693.81
2024-05-09T05:54:26.701Z,99714.78
2024-05-09T05:59:29.669Z,99695.94
2024-05-09T06:04:32.530Z,99704.97
2024-05-09T06:09:53.655Z,99710.44
2024-05-09T06:14:56.381Z,99688.03
2024-05-09T06:19:58.723Z,99679.22
2024-05-09T06:25:01.390Z,99683.88
2024-05-09T06:30:08.145Z,99680.16
2024-05-09T06:35:12.649Z,99669.25
2024-05-09T06:40:21.192Z,99641.09
2024-05-09T06:45:27.988Z,99651.53
2024-05-09T06:50:36.859Z,99668.25
2024-05-09T06:55:41.059Z,99672.03
2024-05-09T07:00:43.882Z,99622.81
2024-05-09T07:05:48.123Z,99643.34
2024-05-09T07:10:52.427Z,99654.06
2024-05-09T07:15:55.471Z,99655.03
2024-05-09T07:20:58.451Z,99654.53
2024-05-09T07:26:01.638Z,99656.13
2024-05-09T07:31:04.930Z,99649.50
2024-05-09T07:36:08.078Z,99639.78
2024-05-09T07:41:11.049Z,99637.34
2024-05-09T07:47:14.137Z,99630.38
2024-05-09T07:53:14.148Z,99601.94
2024-05-09T07:56:59.472Z,99603.44
2024-05-09T08:02:02.626Z,99645.78
2024-05-09T08:07:05.583Z,99633.47
2024-05-09T08:12:08.383Z,99656.50
2024-05-09T08:17:11.055Z,99651.66
2024-05-09T08:22:13.903Z,99648.19
2024-05-09T08:27:16.653Z,99624.22
2024-05-09T08:32:20.476Z,99626.47
2024-05-09T08:37:26.083Z,99627.34
2024-05-09T08:42:33.294Z,99631.16
2024-05-09T08:47:36.671Z,99633.13
2024-05-09T08:52:39.581Z,99610.38
2024-05-09T08:57:43.518Z,99614.16
2024-05-09T09:02:46.409Z,99600.47
2024-05-09T09:07:49.396Z,99615.94
2024-05-09T09:12:56.117Z,99629.44
2024-05-09T09:17:59.720Z,99625.34
2024-05-09T09:23:03.094Z,99621.88
2024-05-09T09:28:06.958Z,99609.25
2024-05-09T09:33:10.438Z,99614.41
2024-05-09T09:38:13.579Z,99620.94
2024-05-09T09:43:23.817Z,99613.59
2024-05-09T09:48:26.706Z,99621.53
2024-05-09T09:53:29.894Z,99619.47
2024-05-09T09:58:32.628Z,99605.19
2024-05-09T10:03:35.754Z,99603.56
2024-05-09T10:08:38.886Z,99599.97
2024-05-09T10:13:42.335Z,99608.63
2024-05-09T10:18:45.521Z,99603.19
2024-05-09T10:24:01.566Z,99597.28
2024-05-09T10:29:14.394Z,99575.38
2024-05-09T10:34:23.995Z,99585.81
2024-05-09T10:39:27.043Z,99579.09
2024-05-09T10:44:29.805Z,99584.97
2024-05-09T10:49:33.253Z,99587.59
2024-05-09T10:54:39.413Z,99570.41
2024-05-09T10:59:42.243Z,99566.13
2024-05-09T11:04:48.114Z,99565.09
2024-05-09T11:09:51.000Z,99558.88
2024-05-09T11:14:56.593Z,99540.03
2024-05-09T11:19:59.627Z,99536.44
2024-05-09T11:25:03.219Z,99533.00
2024-05-09T11:30:11.508Z,99560.16
2024-05-09T11:35:17.016Z,99536.56
2024-05-09T11:40:25.417Z,99522.66
2024-05-09T11:45:37.226Z,99519.56
2024-05-09T11:50:40.419Z,99529.09
2024-05-09T11:55:43.501Z,99519.56
2024-05-09T12:00:46.978Z,99524.25
2024-05-09T12:05:50.036Z,99522.66
2024-05-09T12:10:53.603Z,99518.72
2024-05-09T12:15:56.882Z,99516.81
2024-05-09T12:20:59.605Z,99502.63
2024-05-09T12:26:02.683Z,99508.56
2024-05-09T12:31:05.885Z,99501.25
2024-05-09T12:36:09.907Z,99499.13
2024-05-09T12:41:13.143Z,99502.22
2024-05-09T12:46:16.025Z,99495.19
2024-05-09T12:51:18.935Z,99481.84
2024-05-09T12:56:21.646Z,99477.31
2024-05-09T13:01:24.435Z,99480.03
2024-05-09T13:06:27.129Z,99482.06
2024-05-09T13:11:29.428Z,99474.53
2024-05-09T13:16:32.247Z,99475.34
2024-05-09T13:21:35.271Z,99482.88
2024-05-09T13:26:37.911Z,99474.75
2024-05-09T13:31:40.837Z,99462.28
2024-05-09T13:36:43.763Z,99451.72
2024-05-09T13:41:46.438Z,99467.53
2024-05-09T13:46:49.367Z,99448.50
2024-05-09T13:51:52.242Z,99457.78
2024-05-09T13:56:55.517Z,99448.69
2024-05-09T14:01:58.479Z,99450.91
2024-05-09T14:07:02.295Z,99444.81
2024-05-09T14:12:06.130Z,99442.38
2024-05-09T14:17:11.068Z,99435.97
2024-05-09T14:22:14.308Z,99434.22
2024-05-09T14:27:17.188Z,99425.59
2024-05-09T14:32:19.985Z,99421.94
2024-05-09T14:37:23.397Z,99420.47
2024-05-09T14:42:26.517Z,99404.03
2024-05-09T14:47:29.347Z,99406.97
2024-05-09T14:52:32.237Z,99400.97
2024-05-09T14:57:34.950Z,99390.53
2024-05-09T15:02:37.933Z,99385.34
2024-05-09T15:07:43.979Z,99380.56
2024-05-09T15:12:46.834Z,99386.09
2024-05-09T15:17:49.838Z,99382.66
2024-05-09T15:22:52.560Z,99386.06
2024-05-09T15:27:55.688Z,99379.53
2024-05-09T15:32:58.574Z,99361.91
2024-05-09T15:38:01.375Z,99360.09
2024-05-09T15:43:04.696Z,99350.59
2024-05-09T15:48:08.967Z,99349.38
2024-05-09T15:53:13.050Z,99355.56
2024-05-09T15:58:16.531Z,99352.00
2024-05-09T16:03:19.325Z,99340.41
2024-05-09T16:08:22.145Z,99341.03
2024-05-09T16:13:25.033Z,99350.97
2024-05-09T16:18:27.962Z,99340.72
2024-05-09T16:23:30.654Z,99335.44
2024-05-09T16:28:33.239Z,99340.91
2024-05-09T16:33:36.146Z,99339.41
2024-05-09T16:38:40.145Z,99340.34
2024-05-09T16:43:42.735Z,99335.00
2024-05-09T16:48:45.123Z,99324.59
2024-05-09T16:53:47.958Z,99322.13
2024-05-09T16:58:50.534Z,99329.06
2024-05-09T17:03:53.356Z,99307.47
2024-05-09T17:08:59.100Z,99319.09
2024-05-09T17:14:04.833Z,99324.41
2024-05-09T17:19:07.652Z,99323.47
2024-05-09T17:24:10.532Z,99318.09
2024-05-09T17:29:13.178Z,99319.22
2024-05-09T17:34:15.869Z,99322.97
2024-05-09T17:39:18.633Z,99317.94
2024-05-09T17:44:21.203Z,99320.81
2024-05-09T17:49:24.070Z,99321.81
2024-05-09T17:54:27.064Z,99321.94
2024-05-09T17:59:29.655Z,99317.69
2024-05-09T18:04:33.637Z,99323.97
2024-05-09T18:09:36.730Z,99310.97
2024-05-09T18:14:39.731Z,99308.31
2024-05-09T18:19:42.384Z,99308.22
2024-05-09T18:24:45.155Z,99300.50
2024-05-09T18:29:47.908Z,99299.66
2024-05-09T18:34:50.365Z,99288.50
2024-05-09T18:39:52.963Z,99292.00
2024-05-09T18:44:55.254Z,99284.31
2024-05-09T18:49:57.909Z,99288.72
2024-05-09T18:55:00.539Z,99279.19
2024-05-09T19:00:04.197Z,99278.47
2024-05-09T19:05:08.193Z,99276.72
2024-05-09T19:10:21.888Z,99269.75
2024-05-09T19:15:28.252Z,99274.09
2024-05-09T19:20:34.499Z,99272.41
2024-05-09T19:25:38.662Z,99278.47
2024-05-09T19:30:42.661Z,99271.59
2024-05-09T19:47:01.041Z,99269.88
2024-05-09T19:52:03.792Z,99262.00
2024-05-09T19:57:06.441Z,99262.00
2024-05-09T20:02:08.975Z,99262.97
2024-05-09T20:07:13.100Z,99262.91
2024-05-09T20:12:15.818Z,99255.09
2024-05-09T20:17:18.976Z,99255.22
2024-05-09T20:22:21.610Z,99257.88
2024-05-09T20:27:24.296Z,99257.88
2024-05-09T20:32:26.677Z,99244.06
2024-05-09T20:37:29.339Z,99238.00
2024-05-09T20:42:31.814Z,99239.81
2024-05-09T20:47:52.757Z,99233.72
2024-05-09T20:52:55.602Z,99241.50
2024-05-09T20:57:58.059Z,99249.41
2024-05-09T21:03:00.852Z,99238.94
2024-05-09T21:08:03.558Z,99246.75
2024-05-09T21:13:07.264Z,99238.94
2024-05-09T21:18:10.410Z,99234.59
2024-05-09T21:23:13.163Z,99237.97
2024-05-09T21:28:15.834Z,99237.06
2024-05-09T21:33:18.273Z,99224.03
2024-05-09T21:38:20.990Z,99231.84
2024-05-09T21:43:23.394Z,99228.41
2024-05-09T21:48:26.074Z,99226.63
2024-05-09T21:53:28.724Z,99223.97
2024-05-09T21:58:31.094Z,99214.31
2024-05-09T22:03:34.087Z,99218.59
2024-05-09T22:08:55.472Z,99222.94
2024-05-09T22:13:58.315Z,99229.91
2024-05-09T22:19:01.101Z,99222.09
2024-05-09T22:24:03.986Z,99225.50
2024-05-09T22:29:06.633Z,99214.13
2024-05-09T22:34:09.048Z,99215.91
2024-05-09T22:39:11.753Z,99222.84
2024-05-09T22:44:14.082Z,99220.25
2024-05-09T22:49:16.801Z,99220.97
2024-05-09T22:54:19.594Z,99220.13
2024-05-09T22:59:22.376Z,99221.88
2024-05-09T23:04:25.439Z,99210.59
2024-05-09T23:09:28.427Z,99208.84
2024-05-09T23:14:49.856Z,99206.28
2024-05-09T23:19:52.572Z,99214.16
2024-05-09T23:24:55.289Z,99208.91
2024-05-09T23:29:58.111Z,99209.09
2024-05-09T23:35:00.878Z,99204.72
2024-05-09T23:40:06.875Z,99203.81
2024-05-09T23:45:09.900Z,99195.09
2024-05-09T23:50:17.032Z,99186.47
2024-05-09T23:55:26.436Z,99191.69
